Sanger, California
Current Conditions -  °F | °C
As of 1:53 AM on Thursday 23 Oct 2014 (Local Time) from KFAT Reporting Station
Scattered Clouds Scattered Clouds  
Wind Chill: 58°   Ceiling: Unl
Heat Index: 58°   Visibility: 10mi
Dew Point: 45°   Wind: 3mph
Humidity: 62%   Direction: 80°E
Pressure: 30.04"   Gusts: NA
Location:  36.71°N, 119.55°W
Report Text: KFAT 230853Z 08003KT 10SM SCT250 14/07 A3004 RMK AO2 SLP171 T01440072 57002
Loading
Personal Weather Stations






























Interactive Weather Map
Tropical Storm Tracking
New forecast layout! Learn more

10-Day Weather Forecast

Advertisements
Track Severe Weather on mobile